createdAt,value
2022-08-25T00:00:10.205Z,24.40
2022-08-25T00:02:37.968Z,24.22
2022-08-25T00:05:06.657Z,23.80
2022-08-25T00:07:36.398Z,23.90
2022-08-25T00:10:05.685Z,23.53
2022-08-25T00:12:33.545Z,23.71
2022-08-25T00:15:02.745Z,23.75
2022-08-25T00:17:30.488Z,23.79
2022-08-25T00:19:58.248Z,23.79
2022-08-25T00:22:25.950Z,23.50
2022-08-25T00:24:53.687Z,23.72
2022-08-25T00:27:21.802Z,23.60
2022-08-25T00:29:50.949Z,23.57
2022-08-25T00:32:20.461Z,23.35
2022-08-25T00:34:48.269Z,23.28
2022-08-25T00:37:16.617Z,23.46
2022-08-25T00:39:44.405Z,23.30
2022-08-25T00:42:16.232Z,23.47
2022-08-25T00:44:44.532Z,23.16
2022-08-25T00:47:12.815Z,22.98
2022-08-25T00:49:45.734Z,22.73
2022-08-25T00:52:14.885Z,22.79
2022-08-25T00:54:48.790Z,23.02
2022-08-25T00:57:19.446Z,23.23
2022-08-25T01:00:00.330Z,23.29
2022-08-25T01:02:28.289Z,23.05
2022-08-25T01:04:58.277Z,22.81
2022-08-25T01:07:26.096Z,22.82
2022-08-25T01:09:54.717Z,23.13
2022-08-25T01:12:23.438Z,22.78
2022-08-25T01:14:52.387Z,22.61
2022-08-25T01:17:21.887Z,22.70
2022-08-25T01:19:49.625Z,22.90
2022-08-25T01:22:18.935Z,22.94
2022-08-25T01:24:57.329Z,22.84
2022-08-25T01:27:25.109Z,22.52
2022-08-25T01:29:52.849Z,22.46
2022-08-25T01:32:20.775Z,22.47
2022-08-25T01:34:48.662Z,22.51
2022-08-25T01:37:21.027Z,22.55
2022-08-25T01:39:49.082Z,22.35
2022-08-25T01:42:33.805Z,22.14
2022-08-25T01:45:01.570Z,22.47
2022-08-25T01:47:29.413Z,22.23
2022-08-25T01:49:57.187Z,22.30
2022-08-25T01:52:30.901Z,22.43
2022-08-25T01:54:58.716Z,22.54
2022-08-25T01:57:26.569Z,22.47
2022-08-25T01:59:54.293Z,22.68
2022-08-25T02:02:22.074Z,22.58
2022-08-25T02:04:50.699Z,22.50
2022-08-25T02:07:19.171Z,22.87
2022-08-25T02:09:48.278Z,22.78
2022-08-25T02:12:16.023Z,22.72
2022-08-25T02:14:43.806Z,22.91
2022-08-25T02:17:11.542Z,22.98
2022-08-25T02:19:39.483Z,23.02
2022-08-25T02:22:07.449Z,22.95
2022-08-25T02:24:35.229Z,22.95
2022-08-25T02:27:04.835Z,22.83
2022-08-25T02:29:32.698Z,23.01
2022-08-25T02:32:00.457Z,23.08
2022-08-25T02:34:28.230Z,22.98
2022-08-25T02:36:55.977Z,22.87
2022-08-25T02:39:23.710Z,22.78
2022-08-25T02:41:51.465Z,22.77
2022-08-25T02:44:20.754Z,22.90
2022-08-25T02:46:48.473Z,22.82
2022-08-25T02:49:16.324Z,22.26
2022-08-25T02:51:44.086Z,22.27
2022-08-25T02:54:11.959Z,22.49
2022-08-25T02:56:40.165Z,22.57
2022-08-25T02:59:07.912Z,22.54
2022-08-25T03:01:37.082Z,22.04
2022-08-25T03:04:05.154Z,22.29
2022-08-25T03:06:32.996Z,22.05
2022-08-25T03:09:01.404Z,22.06
2022-08-25T03:11:29.242Z,21.97
2022-08-25T03:13:57.098Z,21.99
2022-08-25T03:16:27.647Z,22.09
2022-08-25T03:18:57.661Z,22.22
2022-08-25T03:21:25.760Z,22.37
2022-08-25T03:23:53.553Z,22.41
2022-08-25T03:26:38.545Z,22.31
2022-08-25T03:29:07.193Z,22.28
2022-08-25T03:31:36.590Z,22.37
2022-08-25T03:34:06.389Z,22.44
2022-08-25T03:36:34.110Z,22.37
2022-08-25T03:39:02.002Z,22.38
2022-08-25T03:41:32.648Z,22.47
2022-08-25T03:44:01.236Z,22.43
2022-08-25T03:46:31.119Z,22.42
2022-08-25T03:49:02.026Z,22.55
2022-08-25T03:51:33.316Z,22.56
2022-08-25T03:54:02.081Z,22.73
2022-08-25T03:56:29.909Z,22.75
2022-08-25T03:58:58.266Z,22.84
2022-08-25T04:01:27.260Z,22.94
2022-08-25T04:03:55.532Z,23.02
2022-08-25T04:06:24.149Z,23.10
2022-08-25T04:08:53.524Z,23.04
2022-08-25T04:11:22.913Z,23.11
2022-08-25T04:13:50.704Z,23.15
2022-08-25T04:16:20.868Z,23.19
2022-08-25T04:18:50.385Z,23.17
2022-08-25T04:21:20.176Z,23.20
2022-08-25T04:23:49.027Z,23.04
2022-08-25T04:26:21.102Z,22.88
2022-08-25T04:28:49.452Z,22.79
2022-08-25T04:31:18.360Z,22.81
2022-08-25T04:33:47.985Z,22.90
2022-08-25T04:36:17.576Z,22.75
2022-08-25T04:38:46.859Z,22.68
2022-08-25T04:41:16.257Z,22.74
2022-08-25T04:43:46.303Z,22.69
2022-08-25T04:46:20.183Z,22.70
2022-08-25T04:48:49.504Z,22.69
2022-08-25T04:51:20.096Z,22.72
2022-08-25T04:53:48.001Z,22.59
2022-08-25T04:56:18.083Z,22.50
2022-08-25T04:58:47.419Z,22.51
2022-08-25T05:01:18.316Z,22.67
2022-08-25T05:03:46.753Z,22.47
2022-08-25T05:06:16.523Z,22.43
2022-08-25T05:08:45.736Z,22.24
2022-08-25T05:11:17.341Z,22.32
2022-08-25T05:13:51.654Z,22.31
2022-08-25T05:16:20.784Z,22.13
2022-08-25T05:18:48.960Z,22.07
2022-08-25T05:21:19.025Z,21.88
2022-08-25T05:23:48.032Z,21.76
2022-08-25T05:26:20.255Z,21.86
2022-08-25T05:28:50.790Z,22.15
2022-08-25T05:31:19.893Z,22.24
2022-08-25T05:33:48.004Z,22.20
2022-08-25T05:36:17.123Z,22.13
2022-08-25T05:38:45.217Z,22.18
2022-08-25T05:41:17.467Z,22.13
2022-08-25T05:43:46.919Z,22.04
2022-08-25T05:46:21.142Z,22.07
2022-08-25T05:48:49.954Z,22.05
2022-08-25T05:51:18.398Z,22.24
2022-08-25T05:53:48.418Z,22.32
2022-08-25T05:56:16.497Z,22.27
2022-08-25T05:58:45.838Z,22.19
2022-08-25T06:01:43.499Z,22.33
2022-08-25T06:04:13.316Z,22.48
2022-08-25T06:06:41.357Z,22.54
2022-08-25T06:09:10.355Z,22.35
2022-08-25T06:11:39.732Z,22.38
2022-08-25T06:14:08.218Z,22.47
2022-08-25T06:16:38.852Z,22.49
2022-08-25T06:19:07.873Z,22.54
2022-08-25T06:21:35.704Z,22.54
2022-08-25T06:24:03.638Z,22.43
2022-08-25T06:26:31.453Z,22.26
2022-08-25T06:28:59.210Z,22.59
2022-08-25T06:31:27.106Z,22.67
2022-08-25T06:33:56.303Z,22.63
2022-08-25T06:36:24.047Z,22.46
2022-08-25T06:38:53.582Z,22.29
2022-08-25T06:41:21.384Z,22.63
2022-08-25T06:43:52.897Z,22.34
2022-08-25T06:46:35.975Z,22.27
2022-08-25T06:49:06.772Z,22.61
2022-08-25T06:51:36.051Z,22.65
2022-08-25T06:54:04.931Z,22.59
2022-08-25T06:56:32.712Z,22.73
2022-08-25T06:59:02.072Z,22.91
2022-08-25T07:01:31.804Z,22.98
2022-08-25T07:04:01.745Z,23.13
2022-08-25T07:06:35.353Z,23.11
2022-08-25T07:09:04.122Z,23.12
2022-08-25T07:11:34.241Z,22.93
2022-08-25T07:14:03.013Z,22.89
2022-08-25T07:16:31.485Z,23.15
2022-08-25T07:19:00.196Z,23.08
2022-08-25T07:21:33.700Z,23.12
2022-08-25T07:24:06.734Z,23.18
2022-08-25T07:26:38.604Z,23.14
2022-08-25T07:29:10.472Z,23.09
2022-08-25T07:31:38.923Z,22.95
2022-08-25T07:34:25.620Z,23.09
2022-08-25T07:36:55.592Z,23.18
2022-08-25T07:39:23.755Z,23.37
2022-08-25T07:41:52.824Z,23.43
2022-08-25T07:44:22.256Z,23.47
2022-08-25T07:46:50.631Z,23.55
2022-08-25T07:49:23.339Z,23.49
2022-08-25T07:52:05.427Z,23.22
2022-08-25T07:54:37.949Z,22.80
2022-08-25T07:57:07.930Z,22.70
2022-08-25T07:59:39.862Z,22.64
2022-08-25T08:02:18.543Z,22.68
2022-08-25T08:04:48.952Z,22.82
2022-08-25T08:07:19.141Z,23.07
2022-08-25T08:09:56.197Z,23.16
2022-08-25T08:12:34.695Z,22.94
2022-08-25T08:15:04.175Z,23.00
2022-08-25T08:17:38.923Z,23.08
2022-08-25T08:20:08.853Z,23.16
2022-08-25T08:22:36.821Z,22.94
2022-08-25T08:25:08.562Z,22.95
2022-08-25T08:27:39.342Z,22.72
2022-08-25T08:30:08.326Z,22.85
2022-08-25T08:33:05.820Z,22.77
2022-08-25T08:35:24.577Z,22.71
2022-08-25T08:37:53.942Z,22.64
2022-08-25T08:40:23.324Z,22.22
2022-08-25T08:43:03.970Z,22.44
2022-08-25T08:45:40.550Z,22.54
2022-08-25T08:48:42.737Z,22.28
2022-08-25T08:51:23.140Z,22.67
2022-08-25T08:53:57.236Z,22.83
2022-08-25T08:56:31.481Z,22.65
2022-08-25T08:59:06.608Z,22.51
2022-08-25T09:01:41.133Z,22.57
2022-08-25T09:04:14.402Z,22.49
2022-08-25T09:06:44.281Z,22.86
2022-08-25T09:09:15.934Z,22.45
2022-08-25T09:11:57.972Z,22.58
2022-08-25T09:14:42.822Z,22.66
2022-08-25T09:17:21.569Z,22.93
2022-08-25T09:20:18.914Z,22.94
2022-08-25T09:22:57.548Z,22.74
2022-08-25T09:25:52.665Z,22.83
2022-08-25T09:28:30.023Z,22.95
2022-08-25T09:31:01.152Z,22.89
2022-08-25T09:33:34.228Z,22.96
2022-08-25T09:36:04.654Z,22.95
2022-08-25T09:38:35.027Z,23.02
2022-08-25T09:41:03.695Z,23.14
2022-08-25T09:43:34.786Z,22.74
2022-08-25T09:46:10.370Z,22.71
2022-08-25T09:48:46.437Z,22.88
2022-08-25T09:51:22.301Z,23.03
2022-08-25T09:53:55.765Z,23.01
2022-08-25T09:56:27.503Z,23.05
2022-08-25T09:59:03.076Z,23.02
2022-08-25T10:01:34.663Z,22.58
2022-08-25T10:04:04.723Z,22.66
2022-08-25T10:06:38.616Z,22.74
2022-08-25T10:09:08.084Z,22.88
2022-08-25T10:11:43.543Z,23.10
2022-08-25T10:14:22.471Z,23.54
2022-08-25T10:16:53.371Z,23.74
2022-08-25T10:19:27.253Z,23.94
2022-08-25T10:22:08.217Z,23.77
2022-08-25T10:24:43.879Z,23.76
2022-08-25T10:27:23.824Z,24.16
2022-08-25T10:30:07.892Z,24.00
2022-08-25T10:32:49.158Z,24.33
2022-08-25T10:35:20.340Z,24.29
2022-08-25T10:38:02.205Z,23.88
2022-08-25T10:40:36.421Z,23.94
2022-08-25T10:43:12.086Z,23.79
2022-08-25T10:45:47.873Z,23.63
2022-08-25T10:48:41.812Z,23.57
2022-08-25T10:51:27.265Z,23.51
2022-08-25T10:54:02.422Z,23.39
2022-08-25T10:56:37.036Z,23.30
2022-08-25T10:59:23.667Z,23.13
2022-08-25T11:02:12.821Z,23.81
2022-08-25T11:04:45.064Z,24.48
2022-08-25T11:07:24.546Z,24.78
2022-08-25T11:09:54.766Z,25.01
2022-08-25T11:12:29.765Z,24.43
2022-08-25T11:15:00.940Z,24.55
2022-08-25T11:17:39.613Z,24.57
2022-08-25T11:20:16.319Z,24.46
2022-08-25T11:23:06.897Z,23.99
2022-08-25T11:25:38.420Z,23.92
2022-08-25T11:28:12.812Z,24.07
2022-08-25T11:30:41.458Z,24.10
2022-08-25T11:33:13.881Z,23.79
2022-08-25T11:35:44.897Z,23.55
2022-08-25T11:38:29.067Z,23.05
2022-08-25T11:41:11.930Z,22.98
2022-08-25T11:44:06.746Z,23.10
2022-08-25T11:46:52.973Z,23.33
2022-08-25T11:49:50.112Z,23.67
2022-08-25T11:52:42.661Z,23.58
2022-08-25T11:55:14.609Z,23.57
2022-08-25T11:57:44.692Z,23.67
2022-08-25T12:00:17.520Z,23.44
2022-08-25T12:02:47.341Z,23.54
2022-08-25T12:05:52.883Z,23.52
2022-08-25T12:08:57.547Z,23.74
2022-08-25T12:11:47.855Z,23.47
2022-08-25T12:14:19.025Z,23.88
2022-08-25T12:17:06.877Z,24.10
2022-08-25T12:19:50.949Z,23.93
2022-08-25T12:23:00.046Z,23.74
2022-08-25T12:25:39.557Z,23.56
2022-08-25T12:28:28.495Z,23.52
2022-08-25T12:31:09.019Z,23.77
2022-08-25T12:33:49.067Z,23.79
2022-08-25T12:36:31.015Z,23.90
2022-08-25T12:39:19.200Z,24.01
2022-08-25T12:41:54.169Z,24.20
2022-08-25T12:44:38.203Z,24.39
2022-08-25T12:47:27.002Z,24.66
2022-08-25T12:49:55.673Z,24.62
2022-08-25T12:52:28.104Z,24.75
2022-08-25T12:55:00.506Z,25.50
2022-08-25T12:57:40.640Z,25.18
2022-08-25T13:00:18.428Z,26.19
2022-08-25T13:03:28.165Z,25.33
2022-08-25T13:06:23.239Z,25.05
2022-08-25T13:09:27.052Z,24.89
2022-08-25T13:12:03.494Z,25.67
2022-08-25T13:14:38.324Z,26.18
2022-08-25T13:17:07.621Z,26.60
2022-08-25T13:19:38.040Z,27.09
2022-08-25T13:22:16.349Z,26.92
2022-08-25T13:27:25.129Z,27.31
2022-08-25T13:29:56.644Z,27.03
2022-08-25T13:32:32.060Z,26.90
2022-08-25T13:35:14.193Z,26.39
2022-08-25T13:37:41.130Z,27.15
2022-08-25T13:40:17.860Z,27.58
2022-08-25T13:42:55.468Z,27.15
2022-08-25T13:45:26.423Z,26.72
2022-08-25T13:47:55.897Z,25.54
2022-08-25T13:50:34.218Z,24.85
2022-08-25T13:53:04.896Z,24.78
2022-08-25T13:55:38.209Z,24.70
2022-08-25T13:58:24.972Z,24.83
2022-08-25T14:01:22.365Z,25.12
2022-08-25T14:04:24.242Z,24.70
2022-08-25T14:07:13.717Z,25.03
2022-08-25T14:09:48.764Z,25.35
2022-08-25T14:12:47.529Z,25.60
2022-08-25T14:15:32.481Z,25.84
2022-08-25T14:18:05.393Z,25.97
2022-08-25T14:20:34.934Z,25.41
2022-08-25T14:23:07.894Z,25.95
2022-08-25T14:25:40.476Z,25.13
2022-08-25T14:28:13.782Z,25.01
2022-08-25T14:30:46.517Z,25.09
2022-08-25T14:33:16.463Z,25.16
2022-08-25T14:35:47.454Z,24.88
2022-08-25T14:38:15.984Z,24.96
2022-08-25T14:40:45.128Z,25.20
2022-08-25T14:43:13.367Z,24.92
2022-08-25T14:45:45.999Z,25.15
2022-08-25T14:48:21.530Z,25.14
2022-08-25T14:50:49.286Z,25.72
2022-08-25T14:53:18.471Z,25.52
2022-08-25T14:55:46.277Z,25.15
2022-08-25T14:58:14.101Z,25.16
2022-08-25T15:00:46.005Z,24.64
2022-08-25T15:03:17.490Z,24.77
2022-08-25T15:05:46.279Z,24.66
2022-08-25T15:08:33.468Z,24.75
2022-08-25T15:11:01.814Z,24.80
2022-08-25T15:13:36.650Z,24.77
2022-08-25T15:16:07.071Z,24.85
2022-08-25T15:18:34.889Z,24.74
2022-08-25T15:21:02.853Z,24.54
2022-08-25T15:23:30.885Z,24.57
2022-08-25T15:25:58.727Z,24.63
2022-08-25T15:28:26.560Z,24.51
2022-08-25T15:30:54.588Z,24.54
2022-08-25T15:33:23.827Z,24.73
2022-08-25T15:35:51.602Z,25.04
2022-08-25T15:38:20.624Z,25.11
2022-08-25T15:40:48.402Z,25.15
2022-08-25T15:43:16.157Z,24.92
2022-08-25T15:45:44.492Z,24.27
2022-08-25T15:48:14.318Z,24.23
2022-08-25T15:50:44.010Z,24.39
2022-08-25T15:53:11.796Z,24.45
2022-08-25T15:55:42.962Z,24.25
2022-08-25T15:58:12.007Z,24.27
2022-08-25T16:00:40.068Z,24.20
2022-08-25T16:03:10.323Z,24.05
2022-08-25T16:05:38.862Z,24.48
2022-08-25T16:08:19.047Z,25.17
2022-08-25T16:10:47.597Z,25.54
2022-08-25T16:13:15.560Z,24.94
2022-08-25T16:15:53.111Z,24.78
2022-08-25T16:18:22.370Z,24.27
2022-08-25T16:20:50.928Z,24.18
2022-08-25T16:23:21.432Z,23.90
2022-08-25T16:25:49.563Z,23.76
2022-08-25T16:28:20.574Z,23.93
2022-08-25T16:30:52.746Z,24.10
2022-08-25T16:33:21.753Z,24.41
2022-08-25T16:35:50.159Z,24.76
2022-08-25T16:38:18.687Z,24.95
2022-08-25T16:40:48.453Z,24.90
2022-08-25T16:43:17.711Z,24.71
2022-08-25T16:45:46.337Z,24.77
2022-08-25T16:48:18.149Z,24.60
2022-08-25T16:50:46.607Z,24.20
2022-08-25T16:53:46.127Z,23.88
2022-08-25T16:56:35.112Z,23.46
2022-08-25T16:59:04.680Z,23.22
2022-08-25T17:01:35.585Z,23.42
2022-08-25T17:04:04.584Z,23.18
2022-08-25T17:06:37.680Z,22.71
2022-08-25T17:09:07.046Z,22.90
2022-08-25T17:11:43.008Z,23.04
2022-08-25T17:14:11.424Z,23.02
2022-08-25T17:16:39.343Z,23.14
2022-08-25T17:19:12.610Z,22.60
2022-08-25T17:21:44.921Z,22.61
2022-08-25T17:24:15.192Z,22.87
2022-08-25T17:26:47.156Z,22.98
2022-08-25T17:29:14.910Z,22.89
2022-08-25T17:31:44.544Z,23.06
2022-08-25T17:34:16.307Z,22.90
2022-08-25T17:36:45.209Z,22.89
2022-08-25T17:39:14.630Z,23.19
2022-08-25T17:41:45.114Z,23.23
2022-08-25T17:44:13.418Z,23.21
2022-08-25T17:46:47.342Z,23.09
2022-08-25T17:49:15.988Z,22.79
2022-08-25T17:51:43.816Z,22.77
2022-08-25T17:54:13.252Z,22.70
2022-08-25T17:56:41.243Z,22.56
2022-08-25T17:59:11.902Z,22.55
2022-08-25T18:01:40.693Z,22.62
2022-08-25T18:04:14.280Z,22.48
2022-08-25T18:06:46.614Z,22.47
2022-08-25T18:09:14.469Z,22.48
2022-08-25T18:11:42.380Z,22.38
2022-08-25T18:14:12.603Z,22.42
2022-08-25T18:16:42.276Z,22.29
2022-08-25T18:19:10.723Z,22.39
2022-08-25T18:21:39.218Z,22.41
2022-08-25T18:24:07.328Z,22.37
2022-08-25T18:26:36.284Z,22.38
2022-08-25T18:29:04.132Z,22.33
2022-08-25T18:31:33.432Z,22.39
2022-08-25T18:34:02.166Z,22.34
2022-08-25T18:36:30.031Z,22.29
2022-08-25T18:39:15.484Z,22.12
2022-08-25T18:41:45.017Z,21.90
2022-08-25T18:44:15.422Z,21.90
2022-08-25T18:46:45.532Z,21.77
2022-08-25T18:49:15.835Z,21.87
2022-08-25T18:51:44.731Z,21.72
2022-08-25T18:54:22.697Z,21.80
2022-08-25T18:56:52.311Z,21.64
2022-08-25T18:59:20.279Z,21.67
2022-08-25T19:01:53.835Z,21.53
2022-08-25T19:04:28.528Z,21.67
2022-08-25T19:06:59.857Z,21.57
2022-08-25T19:09:27.709Z,21.54
2022-08-25T19:11:57.028Z,21.39
2022-08-25T19:14:26.417Z,21.51
2022-08-25T19:16:57.884Z,21.44
2022-08-25T19:19:26.305Z,21.41
2022-08-25T19:21:54.069Z,21.38
2022-08-25T19:24:22.039Z,21.41
2022-08-25T19:26:53.828Z,21.29
2022-08-25T19:29:23.522Z,21.08
2022-08-25T19:31:53.178Z,21.10
2022-08-25T19:34:30.376Z,21.11
2022-08-25T19:36:59.288Z,21.01
2022-08-25T19:39:27.373Z,20.96
2022-08-25T19:41:56.606Z,20.91
2022-08-25T19:44:26.131Z,20.77
2022-08-25T19:46:56.216Z,20.84
2022-08-25T19:49:31.437Z,20.81
2022-08-25T19:52:00.558Z,20.95
2022-08-25T19:54:30.860Z,20.84
2022-08-25T19:56:59.218Z,20.81
2022-08-25T19:59:40.835Z,20.84
2022-08-25T20:02:15.262Z,20.81
2022-08-25T20:04:49.792Z,20.75
2022-08-25T20:07:18.905Z,20.77
2022-08-25T20:09:46.885Z,20.69
2022-08-25T20:14:48.098Z,20.59
2022-08-25T20:17:24.560Z,20.50
2022-08-25T20:19:56.986Z,20.51
2022-08-25T20:22:26.996Z,20.44
2022-08-25T20:24:57.893Z,20.29
2022-08-25T20:27:33.019Z,20.40
2022-08-25T20:30:02.533Z,20.43
2022-08-25T20:32:31.868Z,20.53
2022-08-25T20:35:01.206Z,20.54
2022-08-25T20:37:29.535Z,20.43
2022-08-25T20:39:57.505Z,20.39
2022-08-25T20:42:25.709Z,20.49
2022-08-25T20:44:54.644Z,20.44
2022-08-25T20:47:22.721Z,20.39
2022-08-25T20:49:50.579Z,20.31
2022-08-25T20:52:20.830Z,20.22
2022-08-25T20:54:50.985Z,20.30
2022-08-25T20:57:24.331Z,20.25
2022-08-25T20:59:54.060Z,20.29
2022-08-25T21:02:21.999Z,20.23
2022-08-25T21:04:50.411Z,20.14
2022-08-25T21:07:20.049Z,19.99
2022-08-25T21:09:48.726Z,19.82
2022-08-25T21:12:17.211Z,19.92
2022-08-25T21:14:45.235Z,19.97
2022-08-25T21:17:16.109Z,19.93
2022-08-25T21:22:21.270Z,19.88
2022-08-25T21:24:49.509Z,19.88
2022-08-25T21:27:17.288Z,19.66
2022-08-25T21:29:54.477Z,19.75
2022-08-25T21:32:23.493Z,19.74
2022-08-25T21:34:52.998Z,19.74
2022-08-25T21:37:23.600Z,19.79
2022-08-25T21:39:51.807Z,19.77
2022-08-25T21:42:19.809Z,19.76
2022-08-25T21:44:47.803Z,19.78
2022-08-25T21:47:15.789Z,19.70
2022-08-25T21:49:49.536Z,19.75
2022-08-25T21:52:17.798Z,19.65
2022-08-25T21:54:47.431Z,19.52
2022-08-25T21:57:17.841Z,19.60
2022-08-25T21:59:46.964Z,19.55
2022-08-25T22:02:19.252Z,19.61
2022-08-25T22:04:52.883Z,19.60
2022-08-25T22:07:22.058Z,19.58
2022-08-25T22:09:54.567Z,19.57
2022-08-25T22:12:23.141Z,19.60
2022-08-25T22:14:52.805Z,19.48
2022-08-25T22:17:24.260Z,19.48
2022-08-25T22:19:53.638Z,19.38
2022-08-25T22:22:22.289Z,19.42
2022-08-25T22:24:50.384Z,19.43
2022-08-25T22:27:20.971Z,19.29
2022-08-25T22:29:51.630Z,19.37
2022-08-25T22:32:19.634Z,19.35
2022-08-25T22:34:48.258Z,19.29
2022-08-25T22:37:17.795Z,19.28
2022-08-25T22:39:46.349Z,19.23
2022-08-25T22:42:14.138Z,19.22
2022-08-25T22:44:43.433Z,19.28
2022-08-25T22:47:12.329Z,19.29
2022-08-25T22:49:40.327Z,19.21
2022-08-25T22:52:09.351Z,19.16
2022-08-25T22:54:41.053Z,19.18
2022-08-25T22:57:08.810Z,19.14
2022-08-25T22:59:38.165Z,19.16
2022-08-25T23:02:07.722Z,19.10
2022-08-25T23:04:41.531Z,19.07
2022-08-25T23:07:11.662Z,18.99
2022-08-25T23:09:39.431Z,18.95
2022-08-25T23:12:07.770Z,19.00
2022-08-25T23:14:36.575Z,19.04
2022-08-25T23:17:04.725Z,18.84
2022-08-25T23:19:37.673Z,18.98
2022-08-25T23:22:11.058Z,18.99
2022-08-25T23:24:42.766Z,19.09
2022-08-25T23:27:13.056Z,19.02
2022-08-25T23:29:43.375Z,18.93
2022-08-25T23:32:14.059Z,18.96
2022-08-25T23:34:46.665Z,18.93
2022-08-25T23:37:15.334Z,18.91
2022-08-25T23:39:45.478Z,18.75
2022-08-25T23:42:13.320Z,18.72
2022-08-25T23:44:41.198Z,18.82
2022-08-25T23:47:08.927Z,18.76
2022-08-25T23:49:40.195Z,18.79
2022-08-25T23:52:09.391Z,18.81
2022-08-25T23:54:37.139Z,18.84
2022-08-25T23:57:06.819Z,18.74
2022-08-25T23:59:34.904Z,18.67
